Terminal Aerodrome Forecast
Issued by NWS

Current Version | Previous Version | Graphics & Text | Print | Product List | Glossary On
Versions: 1 2 3 4 5 6 7 8 9 10 11 12 13 14 15 16 17 18 19 20 21 22 23 24 25
000
FTUS41 KILN 260906 AAB
TAFLUK
TAF AMD
KLUK 260906Z 2609/2706 00000KT 3SM BR SCT002
      TEMPO 2609/2611 1/2SM FG VV002
     FM261300 17006KT P6SM FEW250
     FM261700 19012G20KT P6SM FEW250
     FM270000 19010KT P6SM FEW250
     FM270300 17008KT P6SM FEW250 WS020/18040KT=

USA.gov is the U.S. government's official web portal to all federal, state and local government web resources and services.